メインページ
METAR-TAF:

METAR-TAF

空港 :

インディアナポリス国際空港

インディアナポリス, インディアナ州, アメリカ合衆国

緯度: 39-43-30N, 経度: 086-16-55W, 海抜: 243m

現時点の気象観測

当レポートは20分前の06:54(UTC)に作成
東/南東の風 3kt
気温 21°C
湿度 88%
気圧 1016 hPa
視程: 16.1km
高度5000ftの雲は散在している
高度14000ftの雲は散在している
高度25000ftの千切れ雲あり

METAR: KIND 270654Z 12003KT 10SM SCT050 SCT140 BKN250 21/19 A2999 RMK AO2 SLP147 T02110189 $

時間: 03:14 (07:14 UTC)

予報

当レポートは1時間54分前の05:20(UTC)に作成
予報は27日の 06時(UTC)から 28日の 12時(UTC)まで有効
南/南東の風 4kt
視程: 10km
高度8000ftの雲は散在している
高度20000ftの千切れ雲あり
27日の 1600時(UTC)から
南/南東の風 10kt
視程: 10km
高度6000ftの千切れ雲あり, 積乱雲.
近辺で激しい雷雨
28日の 0000時(UTC)から
南/南東の風 9kt
視程: 10km
高度4000ftの千切れ雲あり
28日の 0600時(UTC)から
南/南東の風 5kt
視程: 10km
高度3000ftの千切れ雲あり

TAF: KIND 270520Z 2706/2812 16004KT P6SM SCT080 BKN200 FM271600 15010KT P6SM VCTS BKN060CB FM280000 15009KT P6SM BKN040 FM280600 15005KT P6SM BKN030

4,000以上の空港の気象観測と天気予報(METAR報とTAF報)

利用可能な観測所は地図上に黄色い丸と赤い丸で示す。

丸の上にカーソルを重ねると観測所名を参照できる。

次にクリックすると気象観測と天気予報を参照できる。

マップの切り替え:黒色「×」印の緑ボタンをクリックして拡大、「-」印の緑ボタンをクリックして縮小、緑色の三角印をクリックして隣りの地図に切り替え


METAR-TAF: